KPRO/PRO METAR and TAF weather

Enter ICAO airport designator
Station Type Date Time Source
KPRO METAR 2021/09/16 11:15 UTC NOAA

KPRO 161115Z AUTO 15005KT 10SM CLR 14/14 A2996 RMK AO2 T01350135


Station Type Date Time Source
KPRO Decoded METAR 2021/09/16 11:15 UTC NOAA

Station name not available
Sep 16, 2021 - 07:15 AM EDT / 2021.09.16 1115 UTC
Wind: from the SSE (150 degrees) at 6 MPH (5 KT):0
Visibility: 10 mile(s):0
Sky conditions: clear
Temperature: 56.3 F (13.5 C)
Dew Point: 56.3 F (13.5 C)
Relative Humidity: 100%
Pressure (altimeter): 29.96 in. Hg (1014 hPa)
ob: KPRO 161115Z AUTO 15005KT 10SM CLR 14/14 A2996 RMK AO2 T01350135
cycle: 11

Station Type Date Time Source
KPRO TAF UTC NOAA

Error!

Example: see airport list